Terminal Aerodrome Forecast
Issued by NWS

Home | Current Version | Previous Version | Text Only | Print | Product List | Glossary On
Versions: 1 2 3 4 5 6 7 8 9 10 11 12 13 14 15 16 17
000
FTUS42 KTBW 260706 AAA
TAFPIE
TAF AMD
KPIE 260706Z 2607/2706 22013G20KT P6SM SCT014 SCT250
      TEMPO 2607/2610 BKN014
     FM261000 22010KT P6SM SCT012 SCT250
     FM261400 26014G22KT P6SM VCSH SCT020 SCT250
     FM261800 25016G24KT P6SM VCSH SCT030 SCT250
     FM262300 26012KT P6SM SCT040 BKN250=

USA.gov is the U.S. government's official web portal to all federal, state and local government web resources and services.